Terminal Aerodrome Forecast
Issued by NWS St Louis, MO

Home | Current Version | Previous Version | Text Only | Print | Product List | Glossary On
Versions: 1 2 3 4 5 6 7 8 9 10 11 12 13 14 15 16 17 18 19 20 21 22
246
FTUS43 KLSX 291307 AAA
TAFCOU
TAF AMD
KCOU 291307Z 2913/3012 16009KT P6SM BKN250
      TEMPO 2915/2917 3SM -TSRA OVC040CB
     FM291700 19012KT P6SM SCT060
     FM300300 16008KT P6SM VCTS BKN060CB
     FM300800 17008KT P6SM BKN150=

USA.gov is the U.S. government's official web portal to all federal, state and local government web resources and services.